sensor_id;sensor_type;location;lat;lon;timestamp;pressure;altitude;pressure_sealevel;temperature;humidity
12785;BME280;6456;42.680;23.260;2022-12-18T00:02:24;95305.38;;;6.82;100.00
12785;BME280;6456;42.680;23.260;2022-12-18T00:04:51;95372.84;;;7.25;100.00
12785;BME280;6456;42.680;23.260;2022-12-18T00:07:18;95382.53;;;7.17;100.00
12785;BME280;6456;42.680;23.260;2022-12-18T00:09:45;95342.22;;;7.03;100.00
12785;BME280;6456;42.680;23.260;2022-12-18T00:12:12;95410.06;;;7.35;100.00
12785;BME280;6456;42.680;23.260;2022-12-18T00:14:46;95437.03;;;7.44;100.00
12785;BME280;6456;42.680;23.260;2022-12-18T00:17:13;95331.66;;;6.66;100.00
12785;BME280;6456;42.680;23.260;2022-12-18T00:19:40;95359.47;;;6.89;100.00
12785;BME280;6456;42.680;23.260;2022-12-18T00:22:07;95392.28;;;7.00;100.00
12785;BME280;6456;42.680;23.260;2022-12-18T00:24:34;95388.22;;;6.97;100.00
12785;BME280;6456;42.680;23.260;2022-12-18T00:27:01;95367.50;;;6.88;100.00
12785;BME280;6456;42.680;23.260;2022-12-18T00:29:28;95368.31;;;6.88;100.00
12785;BME280;6456;42.680;23.260;2022-12-18T00:31:56;95436.22;;;7.13;100.00
12785;BME280;6456;42.680;23.260;2022-12-18T00:34:23;95450.72;;;7.23;100.00
12785;BME280;6456;42.680;23.260;2022-12-18T00:36:50;95434.53;;;7.20;100.00
12785;BME280;6456;42.680;23.260;2022-12-18T00:39:17;95427.53;;;7.12;100.00
12785;BME280;6456;42.680;23.260;2022-12-18T00:41:43;95475.50;;;7.43;100.00
12785;BME280;6456;42.680;23.260;2022-12-18T00:44:42;95488.16;;;7.54;100.00
12785;BME280;6456;42.680;23.260;2022-12-18T00:47:11;95441.25;;;7.14;100.00
12785;BME280;6456;42.680;23.260;2022-12-18T00:49:38;95443.53;;;7.17;100.00
12785;BME280;6456;42.680;23.260;2022-12-18T00:52:05;95480.72;;;7.43;100.00
12785;BME280;6456;42.680;23.260;2022-12-18T00:54:33;95498.00;;;7.52;100.00
12785;BME280;6456;42.680;23.260;2022-12-18T00:57:00;95390.44;;;6.78;100.00
12785;BME280;6456;42.680;23.260;2022-12-18T00:59:28;95463.19;;;7.21;100.00
12785;BME280;6456;42.680;23.260;2022-12-18T01:01:55;95461.41;;;7.14;100.00
12785;BME280;6456;42.680;23.260;2022-12-18T01:04:24;95441.41;;;6.82;100.00
12785;BME280;6456;42.680;23.260;2022-12-18T01:06:51;95379.50;;;6.27;100.00
12785;BME280;6456;42.680;23.260;2022-12-18T01:09:18;95392.22;;;6.38;100.00
12785;BME280;6456;42.680;23.260;2022-12-18T01:11:45;95376.38;;;6.32;100.00
12785;BME280;6456;42.680;23.260;2022-12-18T01:14:31;95513.13;;;7.03;100.00
12785;BME280;6456;42.680;23.260;2022-12-18T01:16:58;95371.22;;;6.16;100.00
12785;BME280;6456;42.680;23.260;2022-12-18T01:19:29;95425.84;;;6.41;100.00
12785;BME280;6456;42.680;23.260;2022-12-18T01:21:56;95463.75;;;6.54;100.00
12785;BME280;6456;42.680;23.260;2022-12-18T01:24:23;95391.59;;;6.20;100.00
12785;BME280;6456;42.680;23.260;2022-12-18T01:26:50;95373.00;;;6.15;100.00
12785;BME280;6456;42.680;23.260;2022-12-18T01:29:17;95421.97;;;6.29;100.00
12785;BME280;6456;42.680;23.260;2022-12-18T01:31:44;95495.06;;;6.70;100.00
12785;BME280;6456;42.680;23.260;2022-12-18T01:34:11;95496.41;;;6.74;100.00
12785;BME280;6456;42.680;23.260;2022-12-18T01:36:40;95404.03;;;6.10;100.00
12785;BME280;6456;42.680;23.260;2022-12-18T01:39:10;95499.38;;;6.46;100.00
12785;BME280;6456;42.680;23.260;2022-12-18T01:41:38;95422.00;;;5.97;100.00
12785;BME280;6456;42.680;23.260;2022-12-18T01:44:51;95522.88;;;6.71;100.00
12785;BME280;6456;42.680;23.260;2022-12-18T01:47:22;95495.13;;;6.54;100.00
12785;BME280;6456;42.680;23.260;2022-12-18T01:49:50;95458.41;;;6.31;100.00
12785;BME280;6456;42.680;23.260;2022-12-18T01:52:20;95401.94;;;5.90;100.00
12785;BME280;6456;42.680;23.260;2022-12-18T01:54:49;95405.38;;;5.90;100.00
12785;BME280;6456;42.680;23.260;2022-12-18T01:57:17;95405.50;;;5.80;100.00
12785;BME280;6456;42.680;23.260;2022-12-18T01:59:50;95457.25;;;6.09;100.00
12785;BME280;6456;42.680;23.260;2022-12-18T02:02:20;95444.19;;;6.09;100.00
12785;BME280;6456;42.680;23.260;2022-12-18T02:04:47;95440.13;;;6.07;100.00
12785;BME280;6456;42.680;23.260;2022-12-18T02:07:19;95510.81;;;6.54;100.00
12785;BME280;6456;42.680;23.260;2022-12-18T02:09:54;95387.88;;;5.74;100.00
12785;BME280;6456;42.680;23.260;2022-12-18T02:12:28;95474.88;;;6.31;100.00
12785;BME280;6456;42.680;23.260;2022-12-18T02:15:06;95462.34;;;5.95;100.00
12785;BME280;6456;42.680;23.260;2022-12-18T02:17:39;95519.50;;;6.30;100.00
12785;BME280;6456;42.680;23.260;2022-12-18T02:20:13;95498.09;;;6.26;100.00
12785;BME280;6456;42.680;23.260;2022-12-18T02:22:53;95531.75;;;6.37;100.00
12785;BME280;6456;42.680;23.260;2022-12-18T02:25:40;95489.13;;;5.97;100.00
12785;BME280;6456;42.680;23.260;2022-12-18T02:28:12;95492.56;;;6.13;100.00
12785;BME280;6456;42.680;23.260;2022-12-18T02:30:41;95465.78;;;6.03;100.00
12785;BME280;6456;42.680;23.260;2022-12-18T02:33:11;95520.00;;;6.33;100.00
12785;BME280;6456;42.680;23.260;2022-12-18T02:35:40;95504.31;;;6.25;100.00
12785;BME280;6456;42.680;23.260;2022-12-18T02:38:09;95562.75;;;6.57;100.00
12785;BME280;6456;42.680;23.260;2022-12-18T02:40:37;95525.03;;;6.19;100.00
12785;BME280;6456;42.680;23.260;2022-12-18T02:43:07;95537.28;;;6.42;100.00
12785;BME280;6456;42.680;23.260;2022-12-18T02:45:45;95557.56;;;6.40;100.00
12785;BME280;6456;42.680;23.260;2022-12-18T02:48:12;95566.69;;;6.53;100.00
12785;BME280;6456;42.680;23.260;2022-12-18T02:50:45;95468.34;;;5.79;100.00
12785;BME280;6456;42.680;23.260;2022-12-18T02:53:22;95491.91;;;5.95;100.00
12785;BME280;6456;42.680;23.260;2022-12-18T02:56:01;95564.59;;;6.16;100.00
12785;BME280;6456;42.680;23.260;2022-12-18T02:58:44;95478.94;;;5.69;100.00
12785;BME280;6456;42.680;23.260;2022-12-18T03:01:18;95423.94;;;5.31;100.00
12785;BME280;6456;42.680;23.260;2022-12-18T03:03:51;95499.84;;;5.69;100.00
12785;BME280;6456;42.680;23.260;2022-12-18T03:06:25;95432.69;;;5.22;100.00
12785;BME280;6456;42.680;23.260;2022-12-18T03:08:57;95527.09;;;5.75;100.00
12785;BME280;6456;42.680;23.260;2022-12-18T03:11:27;95531.16;;;5.69;100.00
12785;BME280;6456;42.680;23.260;2022-12-18T03:14:16;95546.47;;;5.56;100.00
12785;BME280;6456;42.680;23.260;2022-12-18T03:16:48;95562.34;;;5.79;100.00
12785;BME280;6456;42.680;23.260;2022-12-18T03:19:18;95514.34;;;5.56;100.00
12785;BME280;6456;42.680;23.260;2022-12-18T03:21:50;95537.03;;;5.71;100.00
12785;BME280;6456;42.680;23.260;2022-12-18T03:24:19;95505.84;;;5.54;100.00
12785;BME280;6456;42.680;23.260;2022-12-18T03:26:52;95541.84;;;5.92;100.00
12785;BME280;6456;42.680;23.260;2022-12-18T03:29:24;95547.41;;;5.97;100.00
12785;BME280;6456;42.680;23.260;2022-12-18T03:31:57;95545.28;;;5.93;100.00
12785;BME280;6456;42.680;23.260;2022-12-18T03:34:31;95525.97;;;5.77;100.00
12785;BME280;6456;42.680;23.260;2022-12-18T03:37:03;95575.84;;;6.08;100.00
12785;BME280;6456;42.680;23.260;2022-12-18T03:39:30;95579.41;;;5.99;100.00
12785;BME280;6456;42.680;23.260;2022-12-18T03:42:01;95507.31;;;5.48;100.00
12785;BME280;6456;42.680;23.260;2022-12-18T03:44:36;95591.16;;;5.87;100.00
12785;BME280;6456;42.680;23.260;2022-12-18T03:47:13;95617.63;;;6.00;100.00
12785;BME280;6456;42.680;23.260;2022-12-18T03:49:46;95597.00;;;5.81;100.00
12785;BME280;6456;42.680;23.260;2022-12-18T03:52:20;95574.09;;;5.67;100.00
12785;BME280;6456;42.680;23.260;2022-12-18T03:54:51;95481.59;;;5.11;100.00
12785;BME280;6456;42.680;23.260;2022-12-18T03:57:22;95602.59;;;5.86;100.00
12785;BME280;6456;42.680;23.260;2022-12-18T03:59:54;95508.41;;;5.30;100.00
12785;BME280;6456;42.680;23.260;2022-12-18T04:02:24;95569.50;;;5.69;100.00
12785;BME280;6456;42.680;23.260;2022-12-18T04:04:53;95541.91;;;5.50;100.00
12785;BME280;6456;42.680;23.260;2022-12-18T04:07:23;95538.41;;;5.34;100.00
12785;BME280;6456;42.680;23.260;2022-12-18T04:09:53;95623.31;;;5.88;100.00
12785;BME280;6456;42.680;23.260;2022-12-18T04:12:25;95659.25;;;5.94;100.00
12785;BME280;6456;42.680;23.260;2022-12-18T04:14:52;95541.66;;;5.28;100.00
12785;BME280;6456;42.680;23.260;2022-12-18T04:17:20;95532.16;;;5.18;100.00
12785;BME280;6456;42.680;23.260;2022-12-18T04:19:48;95627.31;;;5.74;100.00
12785;BME280;6456;42.680;23.260;2022-12-18T04:22:15;95661.00;;;5.85;100.00
12785;BME280;6456;42.680;23.260;2022-12-18T04:24:43;95662.47;;;5.54;100.00
12785;BME280;6456;42.680;23.260;2022-12-18T04:27:11;95632.22;;;5.35;100.00
12785;BME280;6456;42.680;23.260;2022-12-18T04:29:38;95559.31;;;5.00;100.00
12785;BME280;6456;42.680;23.260;2022-12-18T04:32:05;95582.97;;;5.06;100.00
12785;BME280;6456;42.680;23.260;2022-12-18T04:34:32;95660.03;;;5.52;100.00
12785;BME280;6456;42.680;23.260;2022-12-18T04:37:01;95578.69;;;4.97;100.00
12785;BME280;6456;42.680;23.260;2022-12-18T04:39:28;95620.22;;;5.16;100.00
12785;BME280;6456;42.680;23.260;2022-12-18T04:41:55;95605.75;;;4.96;100.00
12785;BME280;6456;42.680;23.260;2022-12-18T04:44:22;95706.50;;;5.49;100.00
12785;BME280;6456;42.680;23.260;2022-12-18T04:46:49;95701.09;;;5.42;100.00
12785;BME280;6456;42.680;23.260;2022-12-18T04:49:16;95632.72;;;5.05;100.00
12785;BME280;6456;42.680;23.260;2022-12-18T04:51:43;95675.47;;;5.38;100.00
12785;BME280;6456;42.680;23.260;2022-12-18T04:54:12;95596.34;;;4.78;100.00
12785;BME280;6456;42.680;23.260;2022-12-18T04:56:39;95691.47;;;5.43;100.00
12785;BME280;6456;42.680;23.260;2022-12-18T04:59:06;95729.22;;;5.56;100.00
12785;BME280;6456;42.680;23.260;2022-12-18T05:01:35;95725.78;;;5.48;100.00
12785;BME280;6456;42.680;23.260;2022-12-18T05:04:03;95731.28;;;5.45;100.00
12785;BME280;6456;42.680;23.260;2022-12-18T05:06:30;95639.25;;;4.83;100.00
12785;BME280;6456;42.680;23.260;2022-12-18T05:08:57;95646.84;;;4.77;100.00
12785;BME280;6456;42.680;23.260;2022-12-18T05:11:25;95664.56;;;4.91;100.00
12785;BME280;6456;42.680;23.260;2022-12-18T05:13:52;95686.03;;;4.85;100.00
12785;BME280;6456;42.680;23.260;2022-12-18T05:16:24;95630.97;;;4.44;100.00
12785;BME280;6456;42.680;23.260;2022-12-18T05:18:51;95733.63;;;5.04;100.00
12785;BME280;6456;42.680;23.260;2022-12-18T05:21:18;95703.53;;;4.92;100.00
12785;BME280;6456;42.680;23.260;2022-12-18T05:23:45;95669.75;;;4.65;100.00
12785;BME280;6456;42.680;23.260;2022-12-18T05:26:18;95624.44;;;4.40;100.00
12785;BME280;6456;42.680;23.260;2022-12-18T05:28:47;95738.59;;;5.15;100.00
12785;BME280;6456;42.680;23.260;2022-12-18T05:31:14;95684.47;;;4.74;100.00
12785;BME280;6456;42.680;23.260;2022-12-18T05:33:41;95707.78;;;4.93;100.00
12785;BME280;6456;42.680;23.260;2022-12-18T05:36:11;95755.22;;;5.14;100.00
12785;BME280;6456;42.680;23.260;2022-12-18T05:38:39;95691.63;;;4.72;100.00
12785;BME280;6456;42.680;23.260;2022-12-18T05:41:07;95818.78;;;5.31;100.00
12785;BME280;6456;42.680;23.260;2022-12-18T05:43:35;95752.72;;;4.87;100.00
12785;BME280;6456;42.680;23.260;2022-12-18T05:46:07;95764.44;;;4.83;100.00
12785;BME280;6456;42.680;23.260;2022-12-18T05:48:35;95732.31;;;4.65;100.00
12785;BME280;6456;42.680;23.260;2022-12-18T05:51:06;95733.66;;;4.69;100.00
12785;BME280;6456;42.680;23.260;2022-12-18T05:53:33;95757.50;;;4.74;100.00
12785;BME280;6456;42.680;23.260;2022-12-18T05:56:02;95742.38;;;4.60;100.00
12785;BME280;6456;42.680;23.260;2022-12-18T05:58:30;95795.34;;;4.96;100.00
12785;BME280;6456;42.680;23.260;2022-12-18T06:00:58;95788.03;;;4.99;100.00
12785;BME280;6456;42.680;23.260;2022-12-18T06:03:33;95793.03;;;5.10;100.00
12785;BME280;6456;42.680;23.260;2022-12-18T06:06:00;95785.59;;;4.98;100.00
12785;BME280;6456;42.680;23.260;2022-12-18T06:08:27;95762.56;;;4.93;100.00
12785;BME280;6456;42.680;23.260;2022-12-18T06:10:54;95774.53;;;5.04;100.00
12785;BME280;6456;42.680;23.260;2022-12-18T06:13:21;95743.94;;;4.88;100.00
12785;BME280;6456;42.680;23.260;2022-12-18T06:15:48;95813.06;;;5.28;100.00
12785;BME280;6456;42.680;23.260;2022-12-18T06:18:15;95785.88;;;5.12;100.00
12785;BME280;6456;42.680;23.260;2022-12-18T06:20:43;95675.44;;;4.43;100.00
12785;BME280;6456;42.680;23.260;2022-12-18T06:23:10;95757.94;;;4.87;100.00
12785;BME280;6456;42.680;23.260;2022-12-18T06:25:38;95742.75;;;4.65;100.00
12785;BME280;6456;42.680;23.260;2022-12-18T06:28:05;95794.25;;;4.81;100.00
12785;BME280;6456;42.680;23.260;2022-12-18T06:30:35;95729.56;;;4.49;100.00
12785;BME280;6456;42.680;23.260;2022-12-18T06:33:04;95696.31;;;4.33;100.00
12785;BME280;6456;42.680;23.260;2022-12-18T06:35:32;95731.13;;;4.42;100.00
12785;BME280;6456;42.680;23.260;2022-12-18T06:38:01;95764.13;;;4.69;100.00
12785;BME280;6456;42.680;23.260;2022-12-18T06:40:31;95742.44;;;4.50;100.00
12785;BME280;6456;42.680;23.260;2022-12-18T06:43:01;95744.81;;;4.44;100.00
12785;BME280;6456;42.680;23.260;2022-12-18T06:45:27;95769.56;;;4.75;100.00
12785;BME280;6456;42.680;23.260;2022-12-18T06:47:54;95803.22;;;5.04;100.00
12785;BME280;6456;42.680;23.260;2022-12-18T06:50:24;95808.41;;;4.96;100.00
12785;BME280;6456;42.680;23.260;2022-12-18T06:52:51;95814.41;;;4.96;100.00
12785;BME280;6456;42.680;23.260;2022-12-18T06:55:19;95814.34;;;5.06;100.00
12785;BME280;6456;42.680;23.260;2022-12-18T06:57:52;95724.72;;;4.54;100.00
12785;BME280;6456;42.680;23.260;2022-12-18T07:00:19;95767.41;;;4.71;100.00
12785;BME280;6456;42.680;23.260;2022-12-18T07:02:51;95839.91;;;5.02;100.00
12785;BME280;6456;42.680;23.260;2022-12-18T07:05:17;95801.69;;;4.93;100.00
12785;BME280;6456;42.680;23.260;2022-12-18T07:07:44;95735.44;;;4.51;100.00
12785;BME280;6456;42.680;23.260;2022-12-18T07:10:13;95744.44;;;4.57;100.00
12785;BME280;6456;42.680;23.260;2022-12-18T07:12:41;95869.19;;;5.32;100.00
12785;BME280;6456;42.680;23.260;2022-12-18T07:15:09;95862.41;;;5.21;100.00
12785;BME280;6456;42.680;23.260;2022-12-18T07:17:37;95847.81;;;5.10;100.00
12785;BME280;6456;42.680;23.260;2022-12-18T07:20:05;95814.03;;;4.74;100.00
12785;BME280;6456;42.680;23.260;2022-12-18T07:22:32;95885.69;;;5.14;100.00
12785;BME280;6456;42.680;23.260;2022-12-18T07:25:04;95839.44;;;4.89;100.00
12785;BME280;6456;42.680;23.260;2022-12-18T07:27:31;95904.41;;;5.28;100.00
12785;BME280;6456;42.680;23.260;2022-12-18T07:29:59;95875.25;;;5.14;100.00
12785;BME280;6456;42.680;23.260;2022-12-18T07:32:25;95882.41;;;5.12;100.00
12785;BME280;6456;42.680;23.260;2022-12-18T07:34:52;95760.97;;;4.30;100.00
12785;BME280;6456;42.680;23.260;2022-12-18T07:37:19;95882.69;;;5.09;100.00
12785;BME280;6456;42.680;23.260;2022-12-18T07:39:46;95809.78;;;4.55;100.00
12785;BME280;6456;42.680;23.260;2022-12-18T07:42:13;95897.00;;;5.05;100.00
12785;BME280;6456;42.680;23.260;2022-12-18T07:45:00;95829.16;;;4.70;100.00
12785;BME280;6456;42.680;23.260;2022-12-18T07:47:34;95817.06;;;4.69;100.00
12785;BME280;6456;42.680;23.260;2022-12-18T07:50:06;95830.41;;;4.66;100.00
12785;BME280;6456;42.680;23.260;2022-12-18T07:52:33;95847.31;;;4.62;100.00
12785;BME280;6456;42.680;23.260;2022-12-18T07:55:00;95830.97;;;4.42;100.00
12785;BME280;6456;42.680;23.260;2022-12-18T07:57:27;95841.72;;;4.57;100.00
12785;BME280;6456;42.680;23.260;2022-12-18T07:59:54;95898.28;;;4.74;100.00
12785;BME280;6456;42.680;23.260;2022-12-18T08:02:22;95921.97;;;4.90;100.00
12785;BME280;6456;42.680;23.260;2022-12-18T08:04:49;95824.16;;;4.32;100.00
12785;BME280;6456;42.680;23.260;2022-12-18T08:07:27;95912.91;;;4.85;100.00
12785;BME280;6456;42.680;23.260;2022-12-18T08:09:59;95942.38;;;4.95;100.00
12785;BME280;6456;42.680;23.260;2022-12-18T08:12:26;95890.13;;;4.60;100.00
12785;BME280;6456;42.680;23.260;2022-12-18T08:14:53;95940.78;;;4.84;100.00
12785;BME280;6456;42.680;23.260;2022-12-18T08:17:21;95863.69;;;4.27;100.00
12785;BME280;6456;42.680;23.260;2022-12-18T08:19:48;95840.56;;;4.15;100.00
12785;BME280;6456;42.680;23.260;2022-12-18T08:22:18;95853.03;;;4.21;100.00
12785;BME280;6456;42.680;23.260;2022-12-18T08:24:45;95895.13;;;4.53;100.00
12785;BME280;6456;42.680;23.260;2022-12-18T08:27:12;95897.13;;;4.59;100.00
12785;BME280;6456;42.680;23.260;2022-12-18T08:29:39;95906.00;;;4.66;100.00
12785;BME280;6456;42.680;23.260;2022-12-18T08:32:06;95899.50;;;4.52;100.00
12785;BME280;6456;42.680;23.260;2022-12-18T08:34:34;95862.84;;;4.27;100.00
12785;BME280;6456;42.680;23.260;2022-12-18T08:37:01;95917.88;;;4.61;100.00
12785;BME280;6456;42.680;23.260;2022-12-18T08:39:28;95898.22;;;4.29;100.00
12785;BME280;6456;42.680;23.260;2022-12-18T08:41:55;95909.66;;;4.56;100.00
12785;BME280;6456;42.680;23.260;2022-12-18T08:44:40;95968.03;;;4.99;100.00
12785;BME280;6456;42.680;23.260;2022-12-18T08:47:07;95965.13;;;5.02;100.00
12785;BME280;6456;42.680;23.260;2022-12-18T08:49:36;95911.56;;;4.53;100.00
12785;BME280;6456;42.680;23.260;2022-12-18T08:52:03;95989.00;;;5.07;100.00
12785;BME280;6456;42.680;23.260;2022-12-18T08:54:30;95976.69;;;5.00;100.00
12785;BME280;6456;42.680;23.260;2022-12-18T08:56:57;95889.38;;;4.49;100.00
12785;BME280;6456;42.680;23.260;2022-12-18T08:59:24;95916.38;;;4.58;100.00
12785;BME280;6456;42.680;23.260;2022-12-18T09:01:53;95973.25;;;4.99;100.00
12785;BME280;6456;42.680;23.260;2022-12-18T09:04:21;95923.47;;;4.66;100.00
12785;BME280;6456;42.680;23.260;2022-12-18T09:06:49;95876.78;;;4.45;100.00
12785;BME280;6456;42.680;23.260;2022-12-18T09:09:16;95959.03;;;4.84;100.00
12785;BME280;6456;42.680;23.260;2022-12-18T09:11:43;95960.78;;;4.93;100.00
12785;BME280;6456;42.680;23.260;2022-12-18T09:14:09;95957.69;;;5.07;100.00
12785;BME280;6456;42.680;23.260;2022-12-18T09:16:36;95970.22;;;5.22;100.00
12785;BME280;6456;42.680;23.260;2022-12-18T09:19:04;95974.09;;;5.17;100.00
12785;BME280;6456;42.680;23.260;2022-12-18T09:21:34;95951.69;;;4.97;100.00
12785;BME280;6456;42.680;23.260;2022-12-18T09:24:03;95863.31;;;4.49;100.00
12785;BME280;6456;42.680;23.260;2022-12-18T09:26:30;95861.13;;;4.45;100.00
12785;BME280;6456;42.680;23.260;2022-12-18T09:28:57;95961.94;;;5.08;100.00
12785;BME280;6456;42.680;23.260;2022-12-18T09:31:24;95974.88;;;5.28;100.00
12785;BME280;6456;42.680;23.260;2022-12-18T09:33:51;95864.22;;;4.58;100.00
12785;BME280;6456;42.680;23.260;2022-12-18T09:36:18;95982.44;;;5.21;100.00
12785;BME280;6456;42.680;23.260;2022-12-18T09:38:45;95973.88;;;5.29;100.00
12785;BME280;6456;42.680;23.260;2022-12-18T09:41:35;95926.66;;;5.04;100.00
12785;BME280;6456;42.680;23.260;2022-12-18T09:44:20;95896.53;;;4.92;100.00
12785;BME280;6456;42.680;23.260;2022-12-18T09:46:53;95943.09;;;5.32;100.00
12785;BME280;6456;42.680;23.260;2022-12-18T09:49:23;95906.03;;;5.11;100.00
12785;BME280;6456;42.680;23.260;2022-12-18T09:51:55;95915.03;;;5.16;100.00
12785;BME280;6456;42.680;23.260;2022-12-18T09:54:26;95888.19;;;5.06;99.69
12785;BME280;6456;42.680;23.260;2022-12-18T09:56:58;95918.03;;;5.22;98.31
12785;BME280;6456;42.680;23.260;2022-12-18T09:59:30;95957.94;;;5.32;97.75
12785;BME280;6456;42.680;23.260;2022-12-18T10:01:58;95951.16;;;5.39;100.00
12785;BME280;6456;42.680;23.260;2022-12-18T10:04:26;95960.91;;;5.37;99.70
12785;BME280;6456;42.680;23.260;2022-12-18T10:07:04;95873.25;;;4.81;98.77
12785;BME280;6456;42.680;23.260;2022-12-18T10:09:37;95834.19;;;4.54;99.92
12785;BME280;6456;42.680;23.260;2022-12-18T10:12:15;95975.16;;;5.25;99.74
12785;BME280;6456;42.680;23.260;2022-12-18T10:14:51;95940.19;;;5.17;98.63
12785;BME280;6456;42.680;23.260;2022-12-18T10:17:26;95980.59;;;5.31;97.51
12785;BME280;6456;42.680;23.260;2022-12-18T10:19:59;95908.19;;;4.98;96.42
12785;BME280;6456;42.680;23.260;2022-12-18T10:22:39;95975.84;;;5.44;97.51
12785;BME280;6456;42.680;23.260;2022-12-18T10:25:18;95952.59;;;5.33;98.01
12785;BME280;6456;42.680;23.260;2022-12-18T10:27:51;95843.31;;;4.68;96.72
12785;BME280;6456;42.680;23.260;2022-12-18T10:30:21;95920.94;;;5.01;97.13
12785;BME280;6456;42.680;23.260;2022-12-18T10:32:48;95889.66;;;4.91;97.54
12785;BME280;6456;42.680;23.260;2022-12-18T10:35:18;95884.69;;;4.80;98.32
12785;BME280;6456;42.680;23.260;2022-12-18T10:38:01;95904.75;;;4.97;97.28
12785;BME280;6456;42.680;23.260;2022-12-18T10:40:29;95915.78;;;5.09;96.23
12785;BME280;6456;42.680;23.260;2022-12-18T10:43:11;95923.13;;;5.23;95.85
12785;BME280;6456;42.680;23.260;2022-12-18T10:45:39;95958.59;;;5.34;95.67
12785;BME280;6456;42.680;23.260;2022-12-18T10:48:18;95979.38;;;5.53;97.52
12785;BME280;6456;42.680;23.260;2022-12-18T10:50:47;95919.59;;;5.14;94.49
12785;BME280;6456;42.680;23.260;2022-12-18T10:53:19;95933.69;;;5.22;92.94
12785;BME280;6456;42.680;23.260;2022-12-18T10:55:46;95861.78;;;4.74;92.34
12785;BME280;6456;42.680;23.260;2022-12-18T10:58:22;95986.53;;;5.51;92.77
12785;BME280;6456;42.680;23.260;2022-12-18T11:01:06;95922.50;;;5.11;91.80
12785;BME280;6456;42.680;23.260;2022-12-18T11:03:36;95922.22;;;5.14;92.11
12785;BME280;6456;42.680;23.260;2022-12-18T11:06:06;95965.41;;;5.44;92.26
12785;BME280;6456;42.680;23.260;2022-12-18T11:08:33;95971.81;;;5.50;93.38
12785;BME280;6456;42.680;23.260;2022-12-18T11:11:00;95944.94;;;5.22;92.09
12785;BME280;6456;42.680;23.260;2022-12-18T11:13:30;95975.75;;;5.36;90.67
12785;BME280;6456;42.680;23.260;2022-12-18T11:15:58;95923.09;;;5.05;92.33
12785;BME280;6456;42.680;23.260;2022-12-18T11:18:28;95917.78;;;4.97;91.55
12785;BME280;6456;42.680;23.260;2022-12-18T11:20:57;95967.69;;;5.30;91.18
12785;BME280;6456;42.680;23.260;2022-12-18T11:23:26;95877.75;;;4.89;91.74
12785;BME280;6456;42.680;23.260;2022-12-18T11:25:56;95919.81;;;5.21;91.03
12785;BME280;6456;42.680;23.260;2022-12-18T11:28:38;95983.84;;;5.60;89.28
12785;BME280;6456;42.680;23.260;2022-12-18T11:31:19;95850.16;;;4.86;88.46
12785;BME280;6456;42.680;23.260;2022-12-18T11:33:51;95942.66;;;5.37;88.42
12785;BME280;6456;42.680;23.260;2022-12-18T11:36:20;95936.97;;;5.24;86.84
12785;BME280;6456;42.680;23.260;2022-12-18T11:38:49;95927.88;;;5.28;86.33
12785;BME280;6456;42.680;23.260;2022-12-18T11:41:24;95927.81;;;5.19;87.05
12785;BME280;6456;42.680;23.260;2022-12-18T11:44:19;95987.94;;;5.63;87.38
12785;BME280;6456;42.680;23.260;2022-12-18T11:46:53;95962.72;;;5.36;86.94
12785;BME280;6456;42.680;23.260;2022-12-18T11:49:25;95986.22;;;5.54;87.20
12785;BME280;6456;42.680;23.260;2022-12-18T11:51:58;95993.25;;;5.53;88.12
12785;BME280;6456;42.680;23.260;2022-12-18T11:54:25;95878.94;;;4.94;88.66
12785;BME280;6456;42.680;23.260;2022-12-18T11:56:58;95899.34;;;5.08;88.30
12785;BME280;6456;42.680;23.260;2022-12-18T11:59:35;95954.22;;;5.52;88.91
12785;BME280;6456;42.680;23.260;2022-12-18T12:02:17;95969.38;;;5.66;88.45
12785;BME280;6456;42.680;23.260;2022-12-18T12:07:55;95916.91;;;5.42;90.04
12785;BME280;6456;42.680;23.260;2022-12-18T12:10:36;95925.75;;;5.58;89.95
12785;BME280;6456;42.680;23.260;2022-12-18T12:13:24;95956.91;;;5.77;88.57
12785;BME280;6456;42.680;23.260;2022-12-18T12:16:07;95932.50;;;5.69;88.88
12785;BME280;6456;42.680;23.260;2022-12-18T12:18:49;95934.31;;;5.68;89.18
12785;BME280;6456;42.680;23.260;2022-12-18T12:21:24;95880.00;;;5.37;89.97
12785;BME280;6456;42.680;23.260;2022-12-18T12:23:59;95895.19;;;5.59;90.00
12785;BME280;6456;42.680;23.260;2022-12-18T12:26:33;95882.78;;;5.35;88.98
12785;BME280;6456;42.680;23.260;2022-12-18T12:29:27;95876.16;;;5.23;89.66
12785;BME280;6456;42.680;23.260;2022-12-18T12:32:17;95954.97;;;5.62;90.43
12785;BME280;6456;42.680;23.260;2022-12-18T12:38:11;95928.63;;;5.38;90.74
12785;BME280;6456;42.680;23.260;2022-12-18T12:40:44;95855.47;;;4.94;92.15
12785;BME280;6456;42.680;23.260;2022-12-18T12:43:28;95918.94;;;5.48;93.06
12785;BME280;6456;42.680;23.260;2022-12-18T12:46:08;95914.75;;;5.55;92.93
12785;BME280;6456;42.680;23.260;2022-12-18T12:48:43;95919.69;;;5.58;92.05
12785;BME280;6456;42.680;23.260;2022-12-18T12:51:18;95872.41;;;5.26;92.64
12785;BME280;6456;42.680;23.260;2022-12-18T12:53:47;95997.44;;;5.99;91.63
12785;BME280;6456;42.680;23.260;2022-12-18T12:56:17;95959.53;;;5.60;91.91
12785;BME280;6456;42.680;23.260;2022-12-18T12:58:58;95864.22;;;5.03;91.17
12785;BME280;6456;42.680;23.260;2022-12-18T13:01:40;95863.56;;;5.01;91.05
12785;BME280;6456;42.680;23.260;2022-12-18T13:07:59;95863.53;;;4.83;90.34
12785;BME280;6456;42.680;23.260;2022-12-18T13:10:38;95868.13;;;4.72;91.26
12785;BME280;6456;42.680;23.260;2022-12-18T13:13:10;95879.19;;;4.83;91.76
12785;BME280;6456;42.680;23.260;2022-12-18T13:15:39;95860.16;;;4.73;92.19
12785;BME280;6456;42.680;23.260;2022-12-18T13:18:34;95884.41;;;4.83;91.76
12785;BME280;6456;42.680;23.260;2022-12-18T13:21:20;95943.63;;;5.18;91.49
12785;BME280;6456;42.680;23.260;2022-12-18T13:23:50;95938.03;;;5.13;91.35
12785;BME280;6456;42.680;23.260;2022-12-18T13:26:31;95937.88;;;5.14;92.35
12785;BME280;6456;42.680;23.260;2022-12-18T13:29:00;95921.81;;;5.09;92.00
12785;BME280;6456;42.680;23.260;2022-12-18T13:34:34;95934.97;;;5.17;92.33
12785;BME280;6456;42.680;23.260;2022-12-18T13:43:38;95996.06;;;5.60;92.42